Terminal Aerodrome Forecast
Issued by NWS

Home | Current Version | Previous Version | Text Only | Print | Product List | Glossary Off
Versions: 1 2 3 4 5 6 7 8 9 10 11 12 13 14 15 16 17 18 19 20 21 22 23

000
FTUS43 KBIS 161555 AAB
TAFJMS
TAF AMD
KJMS 161555Z 1616/1712 34010KT 3SM BR OVC005
      TEMPO 1616/1618 P6SM NSW SCT006 BKN010
     FM161800 35007KT P6SM SCT009 BKN018
     FM162000 35009KT P6SM BKN025
     FM162200 36009KT P6SM SCT045
     FM170200 36005KT P6SM SCT200=

USA.gov is the U.S. government's official web portal to all federal, state and local government web resources and services.